Tres Ritos, New Mexico
Current Conditions -  °F | °C
As of 9:35 PM on Monday 20 Oct 2014 (Local Time) from KSKX Reporting Station
Few Clouds Few Clouds  
Wind Chill: 52°   Ceiling: Unl
Heat Index: 52°   Visibility: 10mi
Dew Point: 36°   Wind: 12mph
Humidity: 54%   Direction: 120°ESE
Pressure: 30.25"   Gusts: NA
Location:  36.1892°N, 105.688°W
Report Text: KSKX 210335Z AUTO 12010KT 10SM FEW110 11/02 A3025 RMK AO1
Loading
Personal Weather Stations






























Interactive Weather Map
Tropical Storm Tracking
New forecast layout! Learn more

10-Day Weather Forecast

Advertisements
Track Severe Weather on mobile